Time;durP1;ratioP1;P1;durP2;ratioP2;P2;SDS_P1;SDS_P2;PMS_P1;PMS_P2;Temp;Humidity;BMP_temperature;BMP_pressure;BME280_temperature;BME280_humidity;BME280_pressure;Samples;Min_cycle;Max_cycle;Signal;HPM_P1;HPM_P2
2022/05/03 00:00:08;;;;;;;;;35.50;30.25;;;;;15.78;62.42;101493.78;5076025;27;45283;-78
2022/05/03 00:02:54;;;;;;;;;34.50;33.50;;;;;15.72;62.38;101487.47;5076815;27;45507;-78
2022/05/03 00:05:50;;;;;;;;;36.50;32.50;;;;;15.73;62.88;101478.81;5075784;27;45394;-78
2022/05/03 00:08:27;;;;;;;;;36.50;31.50;;;;;15.65;62.95;101480.28;5075971;27;45843;-79
2022/05/03 00:11:30;;;;;;;;;35.50;30.50;;;;;15.64;63.30;101481.97;5075730;27;45286;-78
2022/05/03 00:14:11;;;;;;;;;33.50;30.00;;;;;15.67;63.04;101478.56;5077414;27;45327;-78
2022/05/03 00:16:38;;;;;;;;;37.50;32.50;;;;;15.64;63.26;101468.91;5079756;27;46057;-78
2022/05/03 00:19:05;;;;;;;;;31.25;29.75;;;;;15.58;63.18;101469.59;5080251;28;45321;-78
2022/05/03 00:21:35;;;;;;;;;35.25;31.25;;;;;15.57;63.10;101474.78;5079466;27;45353;-78
2022/05/03 00:24:02;;;;;;;;;34.00;30.25;;;;;15.57;62.85;101470.44;5079407;27;45428;-78
2022/05/03 00:26:29;;;;;;;;;37.50;33.25;;;;;15.55;63.22;101469.47;5077680;27;46920;-77
2022/05/03 00:28:56;;;;;;;;;34.50;31.25;;;;;15.54;63.14;101465.13;5077363;27;45367;-78
2022/05/03 00:31:24;;;;;;;;;36.25;30.25;;;;;15.54;63.46;101464.22;5077971;27;45328;-77
2022/05/03 00:33:51;;;;;;;;;32.00;30.25;;;;;15.57;63.33;101464.34;5079251;27;45448;-79
2022/05/03 00:36:16;;;;;;;;;38.25;31.75;;;;;15.56;63.38;101467.78;5083363;27;46347;-78
2022/05/03 00:38:42;;;;;;;;;39.75;33.00;;;;;15.52;63.60;101464.19;5087078;27;45270;-77
2022/05/03 00:41:10;;;;;;;;;38.50;34.50;;;;;15.51;63.65;101465.00;5079493;27;45412;-77
2022/05/03 00:43:52;;;;;;;;;37.00;32.25;;;;;15.48;63.80;101457.06;5079086;28;45525;-78
2022/05/03 00:46:23;;;;;;;;;43.00;32.75;;;;;15.46;64.19;101462.25;5077564;27;45445;-78
2022/05/03 00:49:25;;;;;;;;;37.75;33.00;;;;;15.45;64.20;101460.47;5078592;27;45786;-78
2022/05/03 00:52:03;;;;;;;;;38.00;32.50;;;;;15.39;63.96;101456.75;5078662;27;45246;-78
2022/05/03 00:54:49;;;;;;;;;42.50;34.50;;;;;15.37;64.50;101464.53;5079182;27;45173;-78
2022/05/03 00:57:39;;;;;;;;;38.25;33.00;;;;;15.33;63.73;101460.91;5078588;27;46305;-78
2022/05/03 01:00:14;;;;;;;;;38.50;32.25;;;;;15.29;63.80;101458.13;5078655;27;45408;-78
2022/05/03 01:03:09;;;;;;;;;36.75;30.25;;;;;15.27;63.90;101467.66;5076888;27;45388;-77
2022/05/03 01:05:59;;;;;;;;;32.50;30.25;;;;;15.25;64.42;101457.13;5079280;27;45402;-77
2022/05/03 01:08:51;;;;;;;;;39.25;31.75;;;;;15.28;64.15;101465.06;5078312;27;45530;-78
2022/05/03 01:11:33;;;;;;;;;35.75;31.75;;;;;15.31;63.86;101459.06;5073574;28;45860;-78
2022/05/03 01:14:04;;;;;;;;;40.25;34.00;;;;;15.30;63.74;101454.69;5665924;22;45749;-92
2022/05/03 01:16:46;;;;;;;;;36.00;31.25;;;;;15.28;63.68;101457.25;5041889;28;45388;-92
2022/05/03 01:19:48;;;;;;;;;36.75;31.50;;;;;15.30;63.83;101454.69;5041432;28;45386;-91
2022/05/03 01:22:28;;;;;;;;;38.00;31.50;;;;;15.30;63.74;101460.81;5043249;28;45284;-90
2022/05/03 01:25:31;;;;;;;;;35.50;31.50;;;;;15.31;64.06;101456.47;5042885;28;45297;-91
2022/05/03 01:28:42;;;;;;;;;33.00;31.75;;;;;15.28;63.43;101452.03;5041688;28;45280;-90
2022/05/03 01:31:12;;;;;;;;;35.25;29.25;;;;;15.29;63.50;101450.28;5039185;28;45340;-91
2022/05/03 01:33:41;;;;;;;;;34.50;31.50;;;;;15.29;63.42;101456.41;5038794;28;45886;-89
2022/05/03 01:36:08;;;;;;;;;34.50;31.75;;;;;15.26;63.76;101450.22;5020860;28;45274;-90
2022/05/03 01:38:52;;;;;;;;;29.00;28.00;;;;;15.23;63.56;101450.09;5041928;28;45493;-88
2022/05/03 01:41:42;;;;;;;;;34.00;30.25;;;;;15.22;63.59;101445.72;5050045;28;46035;-88
2022/05/03 01:44:38;;;;;;;;;35.75;30.50;;;;;15.16;63.04;101446.38;5061950;28;45203;-88
2022/05/03 01:47:35;;;;;;;;;34.75;29.00;;;;;15.11;63.41;101445.34;5044805;28;45436;-81
2022/05/03 01:50:21;;;;;;;;;39.50;32.50;;;;;15.13;63.21;101448.84;5024526;28;45312;-90
2022/05/03 01:53:29;;;;;;;;;31.00;28.25;;;;;15.13;63.65;101447.16;5042230;28;46208;-91
2022/05/03 01:56:35;;;;;;;;;34.25;28.75;;;;;15.12;63.33;101447.97;5039484;28;45911;-90
2022/05/03 01:59:19;;;;;;;;;33.00;30.00;;;;;15.10;63.77;101435.72;5038539;28;45268;-90
2022/05/03 02:02:00;;;;;;;;;39.50;30.75;;;;;15.04;63.31;101433.78;5038915;28;45424;-89
2022/05/03 02:04:40;;;;;;;;;33.50;27.25;;;;;15.01;62.85;101434.53;5022553;28;47075;-90
2022/05/03 02:07:27;;;;;;;;;31.50;30.00;;;;;14.97;63.15;101426.53;5042444;28;45268;-90
2022/05/03 02:10:12;;;;;;;;;36.00;27.75;;;;;14.93;63.42;101433.38;5041365;28;45213;-89
2022/05/03 02:12:45;;;;;;;;;31.50;28.25;;;;;14.91;64.14;101435.03;5038961;28;45377;-87
2022/05/03 02:15:17;;;;;;;;;28.50;26.50;;;;;14.96;63.66;101435.19;5020620;28;45540;-90
2022/05/03 02:18:03;;;;;;;;;35.00;28.50;;;;;15.05;63.79;101432.97;5037381;28;45254;-85
2022/05/03 02:20:46;;;;;;;;;34.25;30.00;;;;;15.09;63.38;101432.22;5037235;28;45338;-85
2022/05/03 02:23:47;;;;;;;;;30.25;29.50;;;;;15.08;62.99;101433.03;5037156;28;45308;-82
2022/05/03 02:26:49;;;;;;;;;35.75;29.25;;;;;15.04;62.60;101439.00;5023362;28;45429;-82
2022/05/03 02:29:33;;;;;;;;;29.00;28.75;;;;;15.04;63.28;101445.91;5036360;28;45329;-82
2022/05/03 02:32:26;;;;;;;;;30.25;27.75;;;;;15.06;63.24;101446.88;5036229;28;45412;-83
2022/05/03 02:35:02;;;;;;;;;29.25;26.25;;;;;15.04;63.11;101441.59;5018257;28;45792;-85
2022/05/03 02:37:46;;;;;;;;;35.25;30.00;;;;;15.06;63.45;101449.47;5037443;28;46050;-89
2022/05/03 02:40:18;;;;;;;;;33.50;30.00;;;;;15.09;63.10;101445.25;5039159;28;45462;-91
2022/05/03 02:42:45;;;;;;;;;31.50;27.00;;;;;15.10;62.66;101444.44;5041317;28;45440;-91
2022/05/03 02:45:12;;;;;;;;;28.25;25.25;;;;;15.11;62.94;101446.22;5041611;28;45248;-91
2022/05/03 02:47:53;;;;;;;;;32.25;29.25;;;;;15.12;62.83;101447.09;5038230;28;46343;-87
2022/05/03 02:50:25;;;;;;;;;33.75;31.50;;;;;15.10;62.51;101439.22;5041349;28;45265;-91
2022/05/03 02:52:58;;;;;;;;;33.25;29.75;;;;;15.08;62.57;101442.59;5038877;28;45228;-89
2022/05/03 02:55:42;;;;;;;;;31.50;29.00;;;;;15.02;62.67;101443.25;5038114;28;45443;-91
2022/05/03 02:58:44;;;;;;;;;29.75;27.00;;;;;15.02;63.90;101445.88;5038615;28;45364;-82
2022/05/03 03:01:47;;;;;;;;;34.50;30.00;;;;;15.01;64.53;101438.88;5042710;28;45694;-91
2022/05/03 03:04:46;;;;;;;;;36.00;29.25;;;;;14.94;65.68;101445.59;5040376;28;45301;-92
2022/05/03 03:07:21;;;;;;;;;39.50;31.75;;;;;14.82;66.50;101455.56;5039034;28;45588;-90
2022/05/03 03:09:54;;;;;;;;;30.75;30.00;;;;;14.69;67.01;101449.00;5037775;28;46002;-91
2022/05/03 03:12:39;;;;;;;;;32.00;29.00;;;;;14.63;67.24;101451.34;5038396;28;45425;-91
2022/05/03 03:15:07;;;;;;;;;32.25;28.00;;;;;14.57;68.00;101451.09;5040435;28;45324;-92
2022/05/03 03:17:38;;;;;;;;;35.75;30.00;;;;;14.52;68.05;101453.53;5040904;28;45314;-90
2022/05/03 03:20:08;;;;;;;;;33.75;30.75;;;;;14.46;67.59;101450.69;5037942;28;45278;-90
2022/05/03 03:22:44;;;;;;;;;33.25;30.00;;;;;14.41;68.01;101442.69;5037771;28;45391;-90
2022/05/03 03:25:14;;;;;;;;;36.50;30.75;;;;;14.38;68.63;101437.34;5037909;28;45444;-90
2022/05/03 03:28:35;;;;;;;;;34.00;32.50;;;;;14.35;68.66;101442.44;5038757;28;45293;-92
2022/05/03 03:31:02;;;;;;;;;38.25;31.00;;;;;14.32;68.62;101442.31;5039573;28;46616;-90
2022/05/03 03:33:34;;;;;;;;;37.50;31.50;;;;;14.32;68.97;101443.22;5037732;28;45442;-91
2022/05/03 03:36:02;;;;;;;;;31.00;29.25;;;;;14.31;68.88;101444.03;5037250;28;45304;-91
2022/05/03 03:38:35;;;;;;;;;31.50;30.25;;;;;14.33;68.55;101438.88;5037598;28;45339;-91
2022/05/03 03:41:02;;;;;;;;;34.25;31.00;;;;;14.36;69.01;101441.59;5041575;28;46158;-89
2022/05/03 03:43:28;;;;;;;;;39.75;33.50;;;;;14.35;68.67;101438.13;5039326;28;45786;-91
2022/05/03 03:45:53;;;;;;;;;42.50;33.00;;;;;14.35;68.60;101430.31;5037558;28;45416;-91
2022/05/03 03:48:19;;;;;;;;;24.75;20.75;;;;;14.33;68.85;101431.06;5048582;28;45228;-91
2022/05/03 03:50:47;;;;;;;;;42.25;32.75;;;;;14.32;69.20;101431.88;5039334;28;45408;-87
2022/05/03 03:53:14;;;;;;;;;42.00;33.25;;;;;14.31;69.33;101438.81;5038979;28;45233;-90
2022/05/03 03:55:42;;;;;;;;;35.50;30.25;;;;;14.31;69.53;101437.91;5039043;28;45419;-90
2022/05/03 03:58:07;;;;;;;;;37.25;32.00;;;;;14.27;69.84;101433.44;5042852;28;45458;-90
2022/05/03 04:00:33;;;;;;;;;35.25;31.25;;;;;14.21;70.24;101440.16;5038274;28;45338;-90
2022/05/03 04:03:01;;;;;;;;;34.50;31.00;;;;;14.18;70.99;101433.94;5037668;28;45241;-91
2022/05/03 04:05:28;;;;;;;;;39.25;31.75;;;;;14.16;70.25;101439.09;5037882;28;45313;-90
2022/05/03 04:07:54;;;;;;;;;35.50;31.00;;;;;14.13;70.56;101438.09;5043277;28;45278;-92
2022/05/03 04:10:20;;;;;;;;;39.75;32.25;;;;;14.13;70.61;101435.50;5038776;28;46193;-91
2022/05/03 04:12:46;;;;;;;;;36.25;31.25;;;;;14.15;70.37;101433.81;5038116;28;45449;-90
2022/05/03 04:15:12;;;;;;;;;34.75;30.75;;;;;14.18;70.53;101437.47;5038452;28;45300;-91
2022/05/03 04:17:38;;;;;;;;;37.00;31.50;;;;;14.15;70.79;101429.50;5038398;28;45355;-85
2022/05/03 04:20:04;;;;;;;;;37.25;32.50;;;;;14.15;70.72;101442.53;5039165;28;46208;-91
2022/05/03 04:22:30;;;;;;;;;38.50;31.75;;;;;14.14;70.13;101437.28;5038306;28;45770;-91
2022/05/03 04:24:57;;;;;;;;;34.25;31.75;;;;;14.10;71.11;101436.25;5041536;28;45410;-92
2022/05/03 04:27:23;;;;;;;;;40.00;31.75;;;;;14.12;70.80;101439.81;5045164;28;44865;-92
2022/05/03 04:29:49;;;;;;;;;43.00;33.00;;;;;14.12;70.60;101445.00;5042311;28;45460;-91
2022/05/03 04:32:15;;;;;;;;;36.00;31.00;;;;;14.08;70.31;101432.72;5040623;28;45867;-91
2022/05/03 04:34:41;;;;;;;;;38.50;32.50;;;;;14.07;70.50;101436.13;5038990;28;45416;-90
2022/05/03 04:37:06;;;;;;;;;35.25;32.00;;;;;14.03;70.62;101440.34;5038985;28;45543;-90
2022/05/03 04:39:32;;;;;;;;;36.50;30.25;;;;;14.00;70.88;101447.09;5039357;28;45997;-90
2022/05/03 04:41:58;;;;;;;;;37.00;30.50;;;;;13.97;71.32;101450.47;5038568;28;45413;-91
2022/05/03 04:44:24;;;;;;;;;40.25;33.00;;;;;13.91;71.52;101438.09;5039221;28;45218;-89
2022/05/03 04:46:49;;;;;;;;;37.75;32.75;;;;;13.90;71.80;101443.25;5039915;28;45299;-86
2022/05/03 04:49:15;;;;;;;;;42.75;33.50;;;;;13.86;71.54;101447.44;5038646;28;45355;-90
2022/05/03 04:51:41;;;;;;;;;42.25;35.50;;;;;13.81;72.42;101448.09;5039401;28;45316;-82
2022/05/03 04:54:07;;;;;;;;;42.50;34.00;;;;;13.78;72.38;101441.00;5043699;28;45226;-81
2022/05/03 04:56:32;;;;;;;;;37.75;32.25;;;;;13.76;71.99;101446.16;5041334;28;45456;-84
2022/05/03 04:58:58;;;;;;;;;36.25;32.00;;;;;13.76;72.40;101448.78;5038482;28;46076;-82
2022/05/03 05:01:25;;;;;;;;;44.50;33.50;;;;;13.74;72.67;101450.41;5039782;28;45345;-87
2022/05/03 05:03:51;;;;;;;;;40.75;34.75;;;;;13.72;73.14;101453.78;5043632;28;45442;-91
2022/05/03 05:06:16;;;;;;;;;45.50;34.25;;;;;13.69;73.39;101449.34;5042878;28;45568;-90
2022/05/03 05:08:43;;;;;;;;;36.25;31.75;;;;;13.72;73.44;101448.56;5041911;28;46315;-88
2022/05/03 05:11:09;;;;;;;;;41.75;35.50;;;;;13.78;73.42;101451.41;5043245;28;45384;-91
2022/05/03 05:13:36;;;;;;;;;42.00;35.50;;;;;13.84;72.74;101449.09;5044769;28;45536;-90
2022/05/03 05:16:03;;;;;;;;;36.00;33.00;;;;;13.90;72.40;101448.47;5023522;28;45249;-91
2022/05/03 05:18:29;;;;;;;;;36.75;32.50;;;;;14.00;71.69;101454.91;5042541;28;45336;-91
2022/05/03 05:20:55;;;;;;;;;40.00;33.25;;;;;14.03;71.21;101461.16;5046867;28;45272;-90
2022/05/03 05:23:21;;;;;;;;;37.25;33.00;;;;;14.11;70.40;101463.19;5040732;28;45412;-90
2022/05/03 05:25:48;;;;;;;;;36.50;33.00;;;;;14.19;70.78;101466.97;5041185;28;45312;-91
2022/05/03 05:28:15;;;;;;;;;34.00;29.50;;;;;14.23;70.23;101464.56;5039946;28;45935;-82
2022/05/03 05:30:42;;;;;;;;;35.50;31.50;;;;;14.27;70.16;101462.97;5038687;28;45827;-83
2022/05/03 05:33:08;;;;;;;;;36.00;30.75;;;;;14.31;70.06;101464.88;5039926;28;45292;-83
2022/05/03 05:35:34;;;;;;;;;38.00;33.50;;;;;14.31;69.48;101464.88;5041415;28;45449;-91
2022/05/03 05:37:59;;;;;;;;;37.50;29.50;;;;;14.29;69.42;101460.44;5042217;28;45156;-88
2022/05/03 05:40:25;;;;;;;;;43.00;34.25;;;;;14.34;69.29;101469.31;5042671;28;45363;-90
2022/05/03 05:42:50;;;;;;;;;42.25;32.75;;;;;14.34;69.46;101466.72;5047725;28;45268;-91
2022/05/03 05:45:17;;;;;;;;;38.50;31.25;;;;;14.30;68.91;101457.88;5040456;28;45307;-91
2022/05/03 05:47:43;;;;;;;;;36.50;31.25;;;;;14.34;69.60;101465.00;5040228;28;45747;-90
2022/05/03 05:50:09;;;;;;;;;41.00;31.25;;;;;14.34;69.68;101465.00;5043072;28;45288;-89
2022/05/03 05:55:19;;;;;;;;;40.00;32.00;;;;;14.48;69.44;101478.56;5041609;28;45258;-89
2022/05/03 05:57:45;;;;;;;;;29.75;29.25;;;;;14.53;69.32;101483.97;5042790;28;45888;-90
2022/05/03 06:00:11;;;;;;;;;44.25;32.25;;;;;14.62;68.88;101475.63;5042055;28;45266;-90
2022/05/03 06:02:37;;;;;;;;;33.75;30.25;;;;;14.63;68.45;101474.81;5046228;28;45399;-90
2022/05/03 06:05:03;;;;;;;;;34.00;30.25;;;;;14.70;68.66;101484.66;5040468;28;45380;-92
2022/05/03 06:07:29;;;;;;;;;35.25;30.25;;;;;14.70;68.42;101482.94;5040772;28;46140;-91
2022/05/03 06:09:54;;;;;;;;;36.25;31.75;;;;;14.72;68.45;101485.59;5039560;28;45280;-91
2022/05/03 06:12:20;;;;;;;;;35.00;32.25;;;;;14.77;68.18;101481.44;5041465;28;45263;-90
2022/05/03 06:14:46;;;;;;;;;35.75;31.25;;;;;14.83;68.12;101486.00;5040905;28;45541;-90
2022/05/03 06:17:12;;;;;;;;;37.00;32.00;;;;;14.83;67.87;101486.00;5042611;28;45408;-91
2022/05/03 06:19:38;;;;;;;;;31.25;30.50;;;;;14.88;68.21;101480.97;5043677;28;45361;-83
2022/05/03 06:22:04;;;;;;;;;35.75;32.00;;;;;14.96;68.18;101487.34;5043268;28;45269;-91
2022/05/03 06:24:29;;;;;;;;;38.25;31.25;;;;;15.00;67.89;101481.44;5045342;28;45277;-91
2022/05/03 06:26:55;;;;;;;;;34.50;31.25;;;;;15.05;67.69;101489.41;5041736;28;45348;-91
2022/05/03 06:29:21;;;;;;;;;39.50;32.50;;;;;15.04;67.96;101488.56;5024097;28;45470;-91
2022/05/03 06:31:46;;;;;;;;;42.50;33.50;;;;;15.03;67.55;101486.78;5040808;28;45229;-91
2022/05/03 06:34:12;;;;;;;;;43.25;33.25;;;;;15.04;68.04;101498.06;5042978;28;45222;-92
2022/05/03 06:36:38;;;;;;;;;42.00;32.50;;;;;15.06;67.42;101491.22;5040655;28;46085;-84
2022/05/03 06:39:08;;;;;;;;;42.25;34.75;;;;;15.12;67.13;101500.16;5044193;28;45548;-91
2022/05/03 06:41:33;;;;;;;;;35.25;32.00;;;;;15.16;66.71;101502.06;5044610;28;45323;-88
2022/05/03 06:44:00;;;;;;;;;34.50;29.50;;;;;15.17;66.48;101501.19;5044452;28;45567;-89
2022/05/03 06:46:26;;;;;;;;;38.50;32.75;;;;;15.23;66.50;101505.75;5040093;28;45297;-91
2022/05/03 06:48:52;;;;;;;;;33.75;31.50;;;;;15.28;66.63;101505.94;5038410;28;45880;-91
2022/05/03 06:51:18;;;;;;;;;38.50;31.75;;;;;15.32;66.45;101508.72;5040189;28;45327;-87
2022/05/03 06:53:43;;;;;;;;;34.50;30.50;;;;;15.35;66.32;101510.53;5039601;28;45292;-87
2022/05/03 06:56:09;;;;;;;;;32.50;30.00;;;;;15.41;66.14;101507.28;5038150;28;45677;-87
2022/05/03 06:58:35;;;;;;;;;37.50;32.50;;;;;15.45;65.85;101507.44;5039022;28;45307;-91
2022/05/03 07:01:13;;;;;;;;;39.75;31.75;;;;;15.41;65.58;101509.88;5038725;28;45269;-89
2022/05/03 07:03:39;;;;;;;;;39.00;32.00;;;;;15.34;65.72;101506.16;5039394;28;45250;-89
2022/05/03 07:06:04;;;;;;;;;38.25;33.00;;;;;15.25;65.73;101513.66;5040025;28;46079;-92
2022/05/03 07:08:31;;;;;;;;;37.75;29.50;;;;;15.18;66.04;101512.53;5039940;28;45284;-88
2022/05/03 07:10:57;;;;;;;;;34.75;30.25;;;;;15.12;66.11;101510.59;5041935;28;45296;-89
2022/05/03 07:13:26;;;;;;;;;33.75;30.75;;;;;15.12;66.51;101504.47;5040196;28;45526;-89
2022/05/03 07:15:53;;;;;;;;;37.75;32.00;;;;;15.10;66.44;101508.75;5038477;28;45407;-91
2022/05/03 07:23:47;;;;;;;;;35.50;28.75;;;;;15.13;66.72;101503.63;5040109;28;45303;-88
2022/05/03 07:26:13;;;;;;;;;35.00;30.50;;;;;15.17;66.90;101511.63;5040519;28;45574;-91
2022/05/03 07:28:39;;;;;;;;;31.50;28.75;;;;;15.24;66.27;101509.25;5038943;28;45233;-90
2022/05/03 07:31:04;;;;;;;;;31.25;27.50;;;;;15.31;66.25;101512.16;5042417;28;45230;-88
2022/05/03 07:33:30;;;;;;;;;34.00;30.25;;;;;15.46;65.92;101518.75;5042150;28;45190;-92
2022/05/03 07:35:56;;;;;;;;;35.75;30.00;;;;;15.48;65.48;101518.00;5042089;28;45341;-91
2022/05/03 07:38:21;;;;;;;;;33.75;29.00;;;;;15.54;65.65;101516.41;5046523;28;45301;-92
2022/05/03 07:40:47;;;;;;;;;33.25;30.25;;;;;15.60;65.63;101509.69;5024814;28;45288;-91
2022/05/03 07:43:13;;;;;;;;;35.50;30.00;;;;;15.67;64.81;101523.84;5041904;28;45578;-91
2022/05/03 07:45:38;;;;;;;;;33.75;29.75;;;;;15.74;64.66;101519.75;5041643;28;45390;-86
2022/05/03 07:48:05;;;;;;;;;26.75;26.75;;;;;15.82;64.34;101520.88;5040624;28;45493;-90
2022/05/03 07:50:30;;;;;;;;;37.00;30.25;;;;;15.90;64.06;101522.06;5039120;28;45430;-91
2022/05/03 07:52:56;;;;;;;;;29.25;28.50;;;;;15.99;64.11;101524.13;5038796;28;45330;-91
2022/05/03 07:55:21;;;;;;;;;33.75;30.50;;;;;16.12;63.74;101521.94;5038989;28;45707;-86
2022/05/03 07:57:47;;;;;;;;;27.50;27.25;;;;;16.14;62.64;101522.88;5037779;28;45373;-86
2022/05/03 08:00:13;;;;;;;;;30.25;26.75;;;;;16.15;62.41;101520.28;5037739;28;45423;-88
2022/05/03 08:02:39;;;;;;;;;30.50;28.50;;;;;16.20;62.70;101523.94;5039007;28;45264;-86
2022/05/03 08:05:04;;;;;;;;;34.00;29.50;;;;;16.27;62.50;101521.53;5041178;28;46132;-87
2022/05/03 08:07:30;;;;;;;;;30.00;29.75;;;;;16.27;61.76;101517.19;5045528;28;44745;-81
2022/05/03 08:09:56;;;;;;;;;36.75;29.75;;;;;16.28;62.15;101526.81;5040960;28;45220;-83
2022/05/03 08:12:22;;;;;;;;;31.75;28.25;;;;;16.31;61.79;101524.31;5040564;28;45485;-81
2022/05/03 08:14:47;;;;;;;;;34.25;29.50;;;;;16.35;61.84;101525.28;5019812;28;46949;-81
2022/05/03 08:17:13;;;;;;;;;38.00;29.50;;;;;16.32;61.78;101525.19;5036715;28;45254;-82
2022/05/03 08:19:39;;;;;;;;;36.00;31.00;;;;;16.28;61.69;101525.94;5036510;28;46686;-81
2022/05/03 08:22:05;;;;;;;;;33.25;29.50;;;;;16.28;61.89;101529.41;5036980;28;45469;-83
2022/05/03 08:24:31;;;;;;;;;34.75;30.50;;;;;16.34;61.76;101529.63;5036499;28;45457;-85
2022/05/03 08:26:57;;;;;;;;;25.50;24.50;;;;;16.43;61.92;101528.16;5036266;28;45303;-89
2022/05/03 08:29:23;;;;;;;;;31.25;28.50;;;;;16.48;61.95;101531.78;5038321;28;45446;-90
2022/05/03 08:31:49;;;;;;;;;34.75;30.00;;;;;16.51;61.62;101530.19;5038327;28;45389;-89
2022/05/03 08:34:15;;;;;;;;;35.75;31.50;;;;;16.54;61.37;101519.81;5039220;28;45319;-89
2022/05/03 08:36:41;;;;;;;;;41.50;32.50;;;;;16.59;61.36;101527.78;5042685;28;45342;-89
2022/05/03 08:42:05;;;;;;;;;30.00;26.00;;;;;16.60;61.40;101526.06;5042143;28;45323;-91
2022/05/03 08:44:31;;;;;;;;;30.50;27.50;;;;;16.62;61.05;101519.19;5038968;28;45371;-82
2022/05/03 08:46:59;;;;;;;;;36.50;29.00;;;;;16.65;61.06;101528.00;5038474;28;45284;-81
2022/05/03 08:49:36;;;;;;;;;36.00;30.25;;;;;16.62;60.50;101529.63;5039321;28;45288;-81
2022/05/03 08:52:03;;;;;;;;;32.50;28.00;;;;;16.58;60.73;101528.63;5039077;28;45129;-83
2022/05/03 08:54:29;;;;;;;;;31.25;26.25;;;;;16.58;60.67;101525.13;5040138;28;46157;-91
2022/05/03 08:56:56;;;;;;;;;31.25;29.50;;;;;16.62;60.56;101527.88;5041697;28;45318;-90
2022/05/03 08:59:22;;;;;;;;;30.50;26.25;;;;;16.63;59.87;101529.66;5042498;28;45446;-91
2022/05/03 09:01:48;;;;;;;;;31.75;26.25;;;;;16.61;59.52;101520.88;5046887;28;45411;-88
2022/05/03 09:04:15;;;;;;;;;29.00;23.75;;;;;16.59;59.50;101521.69;5041782;28;46252;-89
2022/05/03 09:06:42;;;;;;;;;29.25;27.25;;;;;16.59;59.62;101522.56;5042865;28;45281;-90
2022/05/03 09:09:12;;;;;;;;;34.00;28.00;;;;;16.59;59.58;101529.53;5043949;28;45240;-87
2022/05/03 09:11:47;;;;;;;;;36.25;30.75;;;;;16.61;60.08;101520.88;5042289;28;45365;-82
2022/05/03 09:14:36;;;;;;;;;37.00;30.00;;;;;16.61;60.06;101523.50;5041609;28;45374;-88
2022/05/03 09:17:03;;;;;;;;;31.75;26.25;;;;;16.63;60.65;101528.81;5034617;28;45309;-90
2022/05/03 09:19:29;;;;;;;;;28.00;25.25;;;;;16.66;61.02;101521.03;5042455;28;45306;-90
2022/05/03 09:25:04;;;;;;;;;31.50;30.00;;;;;16.94;60.08;101524.53;5042740;28;45730;-90
2022/05/03 09:27:31;;;;;;;;;26.00;25.25;;;;;17.01;59.57;101518.63;5043377;28;45328;-91
2022/05/03 09:30:10;;;;;;;;;31.00;26.75;;;;;17.03;59.22;101519.56;5044140;28;45376;-90
2022/05/03 09:32:40;;;;;;;;;27.00;26.25;;;;;17.10;59.36;101528.50;5043665;28;45328;-88
2022/05/03 09:35:26;;;;;;;;;24.75;22.00;;;;;17.14;59.60;101515.53;5043339;28;46168;-91
2022/05/03 09:37:52;;;;;;;;;27.25;25.50;;;;;17.25;59.16;101518.47;5041928;28;45883;-89
2022/05/03 09:40:18;;;;;;;;;30.00;29.25;;;;;17.35;58.84;101519.63;5040160;28;45286;-91
2022/05/03 09:42:52;;;;;;;;;31.75;26.75;;;;;17.40;58.83;101512.75;5041322;28;45322;-91
2022/05/03 09:45:22;;;;;;;;;24.75;23.00;;;;;17.47;58.83;101519.06;5045642;28;46026;-88
2022/05/03 09:47:56;;;;;;;;;28.75;27.50;;;;;17.52;58.39;101517.47;5041822;28;45692;-84
2022/05/03 09:50:28;;;;;;;;;21.75;20.75;;;;;17.58;57.71;101512.38;5039380;28;45358;-87
2022/05/03 09:52:55;;;;;;;;;30.75;24.50;;;;;17.63;58.20;101513.41;5039433;28;45352;-90
2022/05/03 09:55:30;;;;;;;;;31.75;27.25;;;;;17.67;57.86;101514.38;5040080;28;46175;-88
2022/05/03 09:57:59;;;;;;;;;27.75;24.00;;;;;17.66;57.62;101504.75;5040184;28;45404;-87
2022/05/03 10:00:24;;;;;;;;;30.25;26.75;;;;;17.69;58.05;101507.47;5039224;28;45379;-88
2022/05/03 10:02:52;;;;;;;;;25.75;25.75;;;;;17.70;57.91;101508.34;5052048;28;45172;-88
2022/05/03 10:05:20;;;;;;;;;25.50;24.50;;;;;17.72;57.12;101507.50;5052826;28;45556;-87
2022/05/03 10:07:46;;;;;;;;;28.25;24.25;;;;;17.70;56.91;101510.94;5039313;28;45416;-90
2022/05/03 10:10:14;;;;;;;;;30.50;24.75;;;;;17.68;57.40;101510.91;5041205;28;45349;-88
2022/05/03 10:12:42;;;;;;;;;28.75;24.00;;;;;17.67;57.41;101508.25;5037993;28;45304;-86
2022/05/03 10:15:09;;;;;;;;;26.75;22.75;;;;;17.66;57.67;101507.38;5038743;28;45922;-84
2022/05/03 10:20:42;;;;;;;;;23.50;21.50;;;;;17.64;57.23;101501.19;5039398;28;45361;-88
2022/05/03 10:23:17;;;;;;;;;21.75;21.25;;;;;17.64;57.58;101495.97;5040422;28;45281;-88
2022/05/03 10:25:42;;;;;;;;;22.50;21.00;;;;;17.64;57.71;101502.09;5038974;28;45636;-87
2022/05/03 10:28:08;;;;;;;;;25.00;21.25;;;;;17.68;57.89;101497.81;5039571;28;45403;-87
2022/05/03 10:30:38;;;;;;;;;20.75;20.50;;;;;17.74;57.41;101499.72;5040811;28;45419;-86
2022/05/03 10:33:19;;;;;;;;;23.50;22.25;;;;;17.79;56.63;101498.09;5041111;28;45629;-90
2022/05/03 10:35:46;;;;;;;;;25.00;21.00;;;;;17.76;56.61;101491.03;5041986;28;46200;-86
2022/05/03 10:38:12;;;;;;;;;22.75;20.50;;;;;17.81;56.29;101503.41;5040804;28;45340;-91
2022/05/03 10:40:43;;;;;;;;;21.00;20.00;;;;;17.84;56.44;101498.22;5024739;28;45380;-83
2022/05/03 10:43:11;;;;;;;;;17.25;17.25;;;;;17.86;55.97;101500.03;5048953;28;45468;-83
2022/05/03 10:45:51;;;;;;;;;23.25;17.75;;;;;17.91;55.83;101489.69;5028070;28;46890;-92
2022/05/03 10:48:25;;;;;;;;;21.00;17.75;;;;;17.99;55.70;101488.16;5040805;28;45825;-92
2022/05/03 10:50:53;;;;;;;;;16.50;16.00;;;;;18.02;54.77;101493.50;5041526;28;45280;-91
2022/05/03 10:53:22;;;;;;;;;18.25;17.25;;;;;18.07;55.09;101488.38;5044950;28;45327;-92
2022/05/03 10:56:08;;;;;;;;;20.50;18.00;;;;;18.10;54.78;101484.09;5044306;28;46223;-92
2022/05/03 10:58:36;;;;;;;;;19.00;16.75;;;;;18.13;54.68;101493.75;5041753;28;45679;-92
2022/05/03 11:01:21;;;;;;;;;20.00;18.25;;;;;18.17;54.64;101484.22;5045613;28;45324;-91
2022/05/03 11:03:52;;;;;;;;;19.25;15.50;;;;;18.20;53.98;101482.56;5040776;28;45287;-80
2022/05/03 11:06:22;;;;;;;;;18.50;16.25;;;;;18.20;52.98;101473.81;5042291;28;46098;-91
2022/05/03 11:09:09;;;;;;;;;17.00;16.00;;;;;18.25;52.51;101473.06;5044023;28;46461;-90
2022/05/03 11:11:37;;;;;;;;;13.50;13.50;;;;;18.35;52.38;101481.16;5042799;28;45391;-90
2022/05/03 11:14:24;;;;;;;;;14.25;12.75;;;;;18.36;51.88;101469.81;5043052;28;45419;-88
2022/05/03 11:17:05;;;;;;;;;17.00;14.75;;;;;18.46;50.69;101476.19;5032202;28;46063;-83
2022/05/03 11:19:39;;;;;;;;;12.25;10.75;;;;;18.52;49.50;101478.94;5046145;28;45225;-82
2022/05/03 11:22:13;;;;;;;;;12.00;10.75;;;;;18.59;49.05;101469.47;5049105;28;44731;-90
2022/05/03 11:24:53;;;;;;;;;14.00;10.50;;;;;18.63;49.50;101472.19;5045134;28;45332;-84
2022/05/03 11:27:20;;;;;;;;;15.75;12.75;;;;;18.69;48.90;101471.44;5042471;28;46184;-89
2022/05/03 11:29:54;;;;;;;;;13.75;11.00;;;;;18.71;49.48;101469.75;5039270;28;45306;-90
2022/05/03 11:32:28;;;;;;;;;18.25;15.25;;;;;18.85;48.84;101470.91;5039585;28;45429;-88
2022/05/03 11:35:02;;;;;;;;;14.00;11.00;;;;;18.97;48.12;101462.44;5023074;28;45522;-89
2022/05/03 11:37:28;;;;;;;;;12.25;11.50;;;;;19.10;47.43;101463.56;5038242;28;45958;-92
2022/05/03 11:40:09;;;;;;;;;12.25;10.00;;;;;19.16;46.05;101462.81;5039700;28;45372;-93
2022/05/03 11:42:37;;;;;;;;;12.75;9.75;;;;;19.20;46.39;101463.75;5039623;28;45280;-93
2022/05/03 11:45:04;;;;;;;;;14.75;8.75;;;;;19.23;46.28;101462.06;5040088;28;45214;-90
2022/05/03 11:47:29;;;;;;;;;13.00;10.00;;;;;19.30;45.30;101456.09;5044364;28;45406;-92